Time;durP1;ratioP1;P1;durP2;ratioP2;P2;SDS_P1;SDS_P2;PMS_P1;PMS_P2;Temp;Humidity;BMP_temperature;BMP_pressure;BME280_temperature;BME280_humidity;BME280_pressure;Samples;Min_cycle;Max_cycle;Signal;HPM_P1;HPM_P2
2021/12/05 00:21:03;;;;;;;35.72;19.83;;;;;;;0.02;100.00;99471.53;6716981;26;33813;-65
2021/12/05 00:24:14;;;;;;;38.33;21.30;;;;;;;-0.19;100.00;99463.62;6716982;26;33779;-65
2021/12/05 00:27:20;;;;;;;36.78;19.70;;;;;;;-0.27;100.00;99462.59;6716820;26;34656;-65
2021/12/05 00:40:35;;;;;;;36.90;19.62;;;;;;;-0.12;100.00;99477.84;6716863;26;34128;-65
2021/12/05 00:50:29;;;;;;;36.88;20.77;;;;;;;-0.27;100.00;99465.19;6716808;26;33707;-65
2021/12/05 00:54:10;;;;;;;38.25;20.52;;;;;;;-0.28;100.00;99463.53;6716887;26;35003;-65
2021/12/05 01:17:02;;;;;;;40.40;19.90;;;;;;;-0.24;100.00;99455.34;6716412;26;34572;-65
2021/12/05 01:20:11;;;;;;;38.70;21.62;;;;;;;-0.30;100.00;99462.84;6716615;26;34124;-65
2021/12/05 01:26:49;;;;;;;39.40;22.17;;;;;;;-0.25;100.00;99458.94;6692558;26;33926;-65
2021/12/05 01:30:04;;;;;;;37.10;20.75;;;;;;;-0.21;100.00;99452.53;6698109;26;34628;-65
2021/12/05 01:49:08;;;;;;;43.20;23.58;;;;;;;-0.51;100.00;99434.94;6717865;26;34106;-66
2021/12/05 02:16:05;;;;;;;41.20;24.12;;;;;;;-0.72;100.00;99405.34;6717560;26;34271;-67
2021/12/05 02:36:45;;;;;;;42.17;22.37;;;;;;;-0.82;100.00;99393.19;6705549;26;312486;-68
2021/12/05 02:42:15;;;;;;;43.92;22.27;;;;;;;-0.91;100.00;99389.50;6717609;26;34182;-67
2021/12/05 02:45:18;;;;;;;;;;;;;;;-0.89;100.00;99382.41;6717848;26;34089;-67
2021/12/05 02:48:24;;;;;;;46.10;23.00;;;;;;;-0.90;100.00;99380.75;6718039;26;35001;-67
2021/12/05 02:51:29;;;;;;;47.62;21.77;;;;;;;-0.88;100.00;99378.88;6717462;26;34052;-67
2021/12/05 02:54:38;;;;;;;44.88;22.48;;;;;;;-0.80;100.00;99389.50;6717462;26;34736;-67
2021/12/05 03:01:07;;;;;;;46.58;23.62;;;;;;;-0.86;100.00;99387.38;6717427;26;34706;-69
2021/12/05 03:04:10;;;;;;;49.65;26.02;;;;;;;-0.90;100.00;99388.56;6717798;26;34707;-68
2021/12/05 03:07:17;;;;;;;45.63;26.67;;;;;;;-0.83;100.00;99389.75;6717462;26;33717;-68
2021/12/05 03:10:21;;;;;;;52.00;27.45;;;;;;;-0.84;100.00;99389.88;6717406;26;33946;-68
2021/12/05 03:13:25;;;;;;;46.72;25.88;;;;;;;-0.71;100.00;99385.34;6717260;26;33805;-69
2021/12/05 03:16:30;;;;;;;46.22;23.52;;;;;;;-0.74;100.00;99394.25;6717222;26;34253;-68
2021/12/05 03:19:33;;;;;;;49.42;23.87;;;;;;;-0.76;100.00;99390.91;6697829;26;35032;-69
2021/12/05 03:22:36;;;;;;;58.85;25.55;;;;;;;-0.94;100.00;99388.00;6717396;26;34002;-69
2021/12/05 03:25:40;;;;;;;50.92;24.85;;;;;;;-0.96;100.00;99389.03;6717419;26;34519;-69
2021/12/05 03:28:44;;;;;;;47.28;23.62;;;;;;;-0.90;100.00;99386.78;6717272;26;34067;-69
2021/12/05 03:31:48;;;;;;;50.00;26.90;;;;;;;-0.90;100.00;99394.59;6717663;26;33932;-69
2021/12/05 03:34:52;;;;;;;54.47;28.87;;;;;;;-0.91;100.00;99376.50;6717587;26;34455;-69
2021/12/05 03:37:57;;;;;;;46.05;23.65;;;;;;;-0.89;100.00;99372.84;6717497;26;33788;-69
2021/12/05 03:41:00;;;;;;;50.08;23.55;;;;;;;-0.84;100.00;99377.69;6717588;26;33860;-69
2021/12/05 03:44:05;;;;;;;51.08;25.30;;;;;;;-0.78;100.00;99394.59;6717257;26;33784;-69
2021/12/05 03:47:08;;;;;;;51.78;27.83;;;;;;;-0.72;100.00;99394.09;6717087;26;34736;-68
2021/12/05 03:50:13;;;;;;;48.45;25.73;;;;;;;-0.71;100.00;99391.37;6697566;26;33994;-69
2021/12/05 03:53:20;;;;;;;47.53;24.27;;;;;;;-0.66;100.00;99388.41;6717680;26;34698;-69
2021/12/05 03:56:25;;;;;;;45.17;25.00;;;;;;;-0.46;100.00;99400.69;6716950;26;34221;-70
2021/12/05 03:59:28;;;;;;;47.50;25.73;;;;;;;-0.63;100.00;99386.38;6716982;26;34167;-69
2021/12/05 04:02:31;;;;;;;51.85;28.05;;;;;;;-0.78;100.00;99395.44;6717058;26;34356;-69
2021/12/05 04:05:35;;;;;;;47.28;24.50;;;;;;;-0.76;100.00;99382.28;6717106;26;34803;-70
2021/12/05 04:08:40;;;;;;;50.47;25.02;;;;;;;-0.72;100.00;99386.28;6717149;26;33395;-69
2021/12/05 04:11:56;;;;;;;46.28;22.75;;;;;;;-0.75;100.00;99382.16;6717147;26;35346;-70
2021/12/05 04:14:59;;;;;;;49.08;25.90;;;;;;;-0.68;100.00;99392.94;6716976;26;35317;-70
2021/12/05 04:18:02;;;;;;;49.88;27.17;;;;;;;-0.59;100.00;99387.84;6716607;26;34245;-70
2021/12/05 04:21:07;;;;;;;50.10;28.38;;;;;;;-0.57;100.00;99387.69;6716935;26;33686;-70
2021/12/05 04:24:12;;;;;;;49.50;23.95;;;;;;;-0.58;100.00;99378.25;6717109;26;34674;-70
2021/12/05 04:27:15;;;;;;;47.13;25.25;;;;;;;-0.58;100.00;99376.44;6696600;26;32483;-70
2021/12/05 04:30:21;;;;;;;48.65;24.45;;;;;;;-0.63;100.00;99373.38;6716833;26;34349;-71
2021/12/05 04:33:25;;;;;;;52.50;25.80;;;;;;;-0.69;100.00;99381.69;6717072;26;33812;-71
2021/12/05 04:36:29;;;;;;;48.55;23.58;;;;;;;-0.63;100.00;99382.97;6696940;26;33645;-70
2021/12/05 04:39:32;;;;;;;47.00;23.48;;;;;;;-0.66;100.00;99384.03;6716917;26;35036;-71
2021/12/05 04:42:36;;;;;;;53.13;27.17;;;;;;;-0.57;100.00;99385.91;6697684;26;34563;-71
2021/12/05 04:45:39;;;;;;;50.88;28.08;;;;;;;-0.57;100.00;99392.91;6716788;26;33900;-71
2021/12/05 04:48:46;;;;;;;45.40;23.33;;;;;;;-0.56;100.00;99404.97;6678310;26;34188;-71
2021/12/05 04:51:50;;;;;;;46.65;23.48;;;;;;;-0.56;100.00;99400.59;6716748;26;34054;-72
2021/12/05 04:54:53;;;;;;;47.97;24.70;;;;;;;-0.56;100.00;99387.56;6696838;26;35416;-72
2021/12/05 04:57:56;;;;;;;47.33;25.02;;;;;;;-0.54;100.00;99385.69;6716575;26;34604;-72
2021/12/05 05:00:59;;;;;;;50.60;25.77;;;;;;;-0.75;100.00;99376.97;6716667;26;34227;-72
2021/12/05 05:04:06;;;;;;;48.42;25.70;;;;;;;-0.75;100.00;99381.34;6697875;26;33947;-73
2021/12/05 05:07:17;;;;;;;48.58;25.37;;;;;;;-0.78;100.00;99379.81;6717974;26;34581;-74
2021/12/05 05:10:25;;;;;;;50.22;28.20;;;;;;;-0.62;100.00;99382.84;6718033;26;33770;-73
2021/12/05 05:13:30;;;;;;;49.75;25.42;;;;;;;-0.73;100.00;99382.88;6717872;26;33769;-74
2021/12/05 05:16:32;;;;;;;44.88;23.92;;;;;;;-0.72;100.00;99384.50;6717727;26;33895;-74
2021/12/05 05:19:43;;;;;;;48.87;25.20;;;;;;;-0.70;100.00;99376.59;6717850;26;34676;-74
2021/12/05 05:23:39;;;;;;;47.40;25.27;;;;;;;-0.65;100.00;99382.25;6717790;26;33925;-74
2021/12/05 05:26:43;;;;;;;49.58;27.67;;;;;;;-0.49;100.00;99391.37;6709794;26;33746;-74
2021/12/05 05:39:55;;;;;;;54.15;28.90;;;;;;;-0.59;100.00;99400.03;6717279;26;33977;-73
2021/12/05 05:46:11;;;;;;;49.80;25.80;;;;;;;-0.49;100.00;99411.38;6717965;26;33976;-73
2021/12/05 05:52:18;;;;;;;52.53;28.62;;;;;;;-0.51;100.00;99411.47;6717592;26;34044;-72
2021/12/05 05:55:21;;;;;;;52.75;26.50;;;;;;;-0.58;100.00;99412.91;6717711;26;34628;-72
2021/12/05 05:58:39;;;;;;;55.55;26.52;;;;;;;-0.63;100.00;99409.03;6717623;26;33881;-71
2021/12/05 06:02:03;;;;;;;52.58;28.25;;;;;;;-0.56;100.00;99412.78;6717692;26;34617;-71
2021/12/05 06:05:06;;;;;;;60.05;30.80;;;;;;;-0.62;100.00;99400.25;6717960;26;33861;-70
2021/12/05 06:08:09;;;;;;;54.28;29.58;;;;;;;-0.70;100.00;99400.03;6717654;26;33979;-70
2021/12/05 06:11:16;;;;;;;59.80;31.58;;;;;;;-0.62;100.00;99408.06;6717773;26;34117;-70
2021/12/05 06:14:19;;;;;;;56.92;30.37;;;;;;;-0.69;100.00;99417.31;6717482;26;33858;-70
2021/12/05 06:17:22;;;;;;;58.78;27.52;;;;;;;-0.56;100.00;99412.78;6717542;26;34070;-70
2021/12/05 06:20:27;;;;;;;54.83;25.77;;;;;;;-0.66;100.00;99411.84;6698037;26;33788;-70
2021/12/05 06:23:35;;;;;;;53.42;26.75;;;;;;;-0.66;100.00;99419.66;6717159;26;34326;-69
2021/12/05 06:26:39;;;;;;;57.38;26.80;;;;;;;-0.73;100.00;99419.34;6697555;26;34330;-69
2021/12/05 06:29:54;;;;;;;58.22;30.25;;;;;;;-0.73;100.00;99410.69;6717548;26;34118;-69
2021/12/05 06:40:15;;;;;;;57.88;27.02;;;;;;;-0.55;100.00;99427.47;6717938;26;33941;-69
2021/12/05 06:46:33;;;;;;;56.90;27.60;;;;;;;-0.64;100.00;99428.22;6717419;26;33883;-69
2021/12/05 06:49:37;;;;;;;51.92;26.05;;;;;;;-0.66;100.00;99428.31;6717279;26;33952;-70
2021/12/05 06:52:39;;;;;;;58.38;28.02;;;;;;;-0.63;100.00;99425.47;6716776;26;34488;-71
2021/12/05 06:55:42;;;;;;;59.80;29.73;;;;;;;-0.64;100.00;99429.03;6697421;26;34238;-70
2021/12/05 06:58:47;;;;;;;56.70;27.05;;;;;;;-0.58;100.00;99431.13;6717556;26;34622;-71
2021/12/05 07:01:50;;;;;;;58.78;25.50;;;;;;;-0.49;100.00;99438.25;6697506;26;33727;-73
2021/12/05 07:05:13;;;;;;;60.17;25.95;;;;;;;-0.52;100.00;99433.25;6717431;26;34485;-72
2021/12/05 07:08:17;;;;;;;57.62;28.92;;;;;;;-0.45;100.00;99447.47;6717049;26;34766;-72
2021/12/05 07:21:36;;;;;;;57.88;29.65;;;;;;;-0.29;100.00;99454.88;6717257;26;34221;-69
2021/12/05 07:24:49;;;;;;;56.95;28.87;;;;;;;-0.25;100.00;99452.87;6716112;26;33959;-69
2021/12/05 07:44:26;;;;;;;53.65;28.38;;;;;;;0.05;100.00;99447.81;6716366;26;34642;-69
2021/12/05 07:47:32;;;;;;;52.17;28.40;;;;;;;0.02;100.00;99452.44;6716075;26;34762;-69
2021/12/05 07:50:47;;;;;;;53.78;29.02;;;;;;;0.14;100.00;99448.88;6716593;26;34400;-70
2021/12/05 07:57:16;;;;;;;51.95;24.77;;;;;;;0.32;100.00;99465.63;6716792;26;34714;-70
2021/12/05 08:00:28;;;;;;;42.25;23.02;;;;;;;0.26;100.00;99466.94;6716910;26;34798;-70
2021/12/05 08:16:59;;;;;;;39.30;22.98;;;;;;;0.31;100.00;99480.44;6716265;26;33996;-70
2021/12/05 08:20:05;;;;;;;42.80;23.23;;;;;;;0.40;100.00;99481.47;6697078;26;34109;-70
2021/12/05 08:23:09;;;;;;;41.22;22.67;;;;;;;0.31;100.00;99479.59;6696912;26;34632;-70
2021/12/05 08:26:18;;;;;;;39.22;24.08;;;;;;;0.15;100.00;99480.00;6697111;26;33968;-69
2021/12/05 08:29:31;;;;;;;39.95;23.02;;;;;;;0.24;100.00;99483.69;6716742;26;34712;-73
2021/12/05 08:32:49;;;;;;;42.95;24.87;;;;;;;0.29;100.00;99477.13;6715023;26;34030;-70
2021/12/05 08:43:31;;;;;;;37.47;20.77;;;;;;;0.32;100.00;99496.91;6717483;26;34005;-70
2021/12/05 08:46:21;;;;;;;38.13;21.42;;;;;;;0.32;100.00;99492.53;6706323;26;32616;-69
2021/12/05 09:23:17;;;;;;;41.22;21.50;;;;;;;0.26;100.00;99493.03;6717282;26;33405;-70
2021/12/05 09:26:38;;;;;;;40.80;22.55;;;;;;;0.41;100.00;99485.72;6717512;26;34551;-71
2021/12/05 09:40:09;;;;;;;42.65;24.70;;;;;;;0.38;100.00;99444.25;6717378;26;35469;-68
2021/12/05 10:16:18;;;;;;;51.47;25.27;;;;;;;0.43;100.00;99431.66;6716167;26;34222;-68
2021/12/05 10:36:28;;;;;;;50.78;25.40;;;;;;;0.31;100.00;99440.47;6716867;26;34272;-70
2021/12/05 10:39:31;;;;;;;49.78;26.10;;;;;;;0.41;100.00;99439.59;6717347;26;34564;-69
2021/12/05 10:42:46;;;;;;;52.50;25.20;;;;;;;0.52;100.00;99443.09;6717396;26;35313;-69
2021/12/05 10:45:54;;;;;;;57.25;27.00;;;;;;;0.37;100.00;99424.31;6696988;26;34124;-70
2021/12/05 10:49:07;;;;;;;63.97;29.37;;;;;;;0.43;100.00;99435.09;6716710;26;34677;-69
2021/12/05 10:52:13;;;;;;;57.40;28.15;;;;;;;0.44;100.00;99433.28;6716348;26;34860;-70
2021/12/05 10:55:30;;;;;;;62.40;28.45;;;;;;;0.47;100.00;99421.78;6696978;26;35084;-70
2021/12/05 10:58:34;;;;;;;59.20;28.92;;;;;;;0.52;100.00;99423.06;6717159;26;34192;-69
2021/12/05 11:01:45;;;;;;;62.75;30.62;;;;;;;0.43;100.00;99421.22;6716713;26;35345;-71
2021/12/05 11:04:49;;;;;;;;;;;;;;;0.30;100.00;99418.78;6717312;26;34611;-71
2021/12/05 11:07:52;;;;;;;53.00;25.65;;;;;;;0.27;100.00;99408.59;6716794;26;34700;-70
2021/12/05 11:11:14;;;;;;;56.67;27.33;;;;;;;0.35;100.00;99411.41;6715681;26;34583;-71
2021/12/05 11:14:45;;;;;;;62.40;27.00;;;;;;;0.40;100.00;99414.47;6716916;26;34576;-71
2021/12/05 11:17:50;;;;;;;60.30;28.05;;;;;;;0.32;100.00;99408.22;6717595;26;33936;-70
2021/12/05 11:20:53;;;;;;;62.15;28.90;;;;;;;0.35;100.00;99411.41;6717114;26;34759;-71
2021/12/05 11:24:12;;;;;;;62.08;26.60;;;;;;;0.36;100.00;99410.44;6717053;26;34002;-70
2021/12/05 11:27:46;;;;;;;63.63;27.35;;;;;;;0.47;100.00;99390.47;6716807;26;33799;-72
2021/12/05 11:30:49;;;;;;;67.03;28.35;;;;;;;0.39;100.00;99396.31;6717087;26;33888;-72
2021/12/05 11:33:55;;;;;;;66.03;28.60;;;;;;;0.40;100.00;99398.81;6716616;26;33991;-72
2021/12/05 11:36:58;;;;;;;69.95;28.33;;;;;;;0.32;100.00;99414.28;6716676;26;34046;-71
2021/12/05 11:40:05;;;;;;;63.05;29.45;;;;;;;0.47;100.00;99416.56;6716739;26;34798;-71
2021/12/05 11:43:11;;;;;;;67.53;27.73;;;;;;;0.47;100.00;99409.56;6716884;26;34741;-72
2021/12/05 11:46:21;;;;;;;66.90;29.63;;;;;;;0.30;100.00;99395.31;6717245;26;34122;-71
2021/12/05 11:49:25;;;;;;;68.53;30.08;;;;;;;0.35;100.00;99400.13;6716767;26;34277;-71
2021/12/05 11:52:28;;;;;;;62.22;27.08;;;;;;;0.34;100.00;99393.25;6717185;26;34004;-72
2021/12/05 11:55:32;;;;;;;66.47;26.67;;;;;;;0.41;100.00;99397.03;6696709;26;34919;-71
2021/12/05 11:58:35;;;;;;;67.03;27.23;;;;;;;0.59;100.00;99399.87;6697103;26;34201;-72
2021/12/05 12:01:41;;;;;;;69.90;29.98;;;;;;;0.52;100.00;99398.75;6716489;26;34680;-73
2021/12/05 12:04:49;;;;;;;70.35;28.55;;;;;;;0.39;100.00;99396.31;6716887;26;34040;-73
2021/12/05 12:08:02;;;;;;;68.65;28.85;;;;;;;0.42;100.00;99393.47;6716999;26;33999;-71
2021/12/05 12:11:05;;;;;;;;;;;;;;;0.41;100.00;99395.25;6716540;26;33990;-72
2021/12/05 12:14:08;;;;;;;67.45;29.98;;;;;;;0.39;100.00;99386.72;6716915;26;34379;-72
2021/12/05 12:17:16;;;;;;;79.22;31.65;;;;;;;0.62;100.00;99391.81;6716245;26;33809;-71
2021/12/05 12:20:23;;;;;;;67.22;27.70;;;;;;;0.53;100.00;99398.63;6715619;26;34221;-71
2021/12/05 12:23:27;;;;;;;66.82;25.85;;;;;;;0.43;100.00;99405.56;6716765;26;34024;-71
2021/12/05 12:26:30;;;;;;;67.18;26.65;;;;;;;0.38;100.00;99408.56;6717024;26;34048;-71
2021/12/05 12:29:34;;;;;;;68.60;27.45;;;;;;;0.31;100.00;99410.00;6716145;26;34331;-73
2021/12/05 12:32:42;;;;;;;73.05;29.50;;;;;;;0.29;100.00;99403.28;6696508;26;34517;-71
2021/12/05 12:35:47;;;;;;;73.82;30.40;;;;;;;0.33;100.00;99389.84;6696845;26;34043;-72
2021/12/05 12:38:49;;;;;;;70.28;27.73;;;;;;;0.46;100.00;99399.25;6716692;26;33867;-71
2021/12/05 12:42:13;;;;;;;65.05;24.77;;;;;;;0.42;100.00;99394.31;6717032;26;34315;-72
2021/12/05 12:45:20;;;;;;;61.08;25.85;;;;;;;0.35;100.00;99385.31;6716670;26;34801;-71
2021/12/05 12:48:28;;;;;;;64.97;25.50;;;;;;;0.33;100.00;99386.41;6696813;26;34101;-71
2021/12/05 12:51:40;;;;;;;58.97;25.60;;;;;;;0.39;100.00;99385.88;6716233;26;34239;-72
2021/12/05 12:54:55;;;;;;;67.75;27.92;;;;;;;0.39;100.00;99386.72;6716719;26;33980;-71
2021/12/05 12:57:58;;;;;;;80.03;28.15;;;;;;;0.30;100.00;99387.47;6716452;26;34092;-71
2021/12/05 13:01:17;;;;;;;94.32;34.28;;;;;;;0.34;100.00;99394.09;6716393;26;34688;-71
2021/12/05 13:12:09;;;;;;;95.55;33.75;;;;;;;0.27;100.00;99376.47;6602661;27;33840;-70
2021/12/05 13:15:31;;;;;;;101.68;35.13;;;;;;;0.32;100.00;99363.88;6601197;27;33831;-70
2021/12/05 13:18:36;;;;;;;104.38;36.10;;;;;;;0.25;100.00;99353.13;6716381;26;34636;-70
2021/12/05 13:21:43;;;;;;;92.35;31.08;;;;;;;0.29;100.00;99364.16;6716350;26;33781;-70
2021/12/05 13:24:46;;;;;;;88.00;28.85;;;;;;;0.31;100.00;99364.84;6717031;26;34142;-70
2021/12/05 13:27:49;;;;;;;93.57;29.85;;;;;;;0.28;100.00;99360.72;6717717;26;33725;-70
2021/12/05 13:30:52;;;;;;;102.43;32.13;;;;;;;0.28;100.00;99368.53;6717776;26;34770;-70
2021/12/05 13:34:35;;;;;;;103.70;32.78;;;;;;;0.34;100.00;99365.38;6717058;26;33961;-70
2021/12/05 13:37:47;;;;;;;100.47;32.92;;;;;;;0.32;100.00;99354.28;6679026;26;34171;-69
2021/12/05 13:40:52;;;;;;;100.05;34.25;;;;;;;0.40;100.00;99335.34;6717515;26;33833;-70
2021/12/05 13:43:57;;;;;;;100.00;33.53;;;;;;;0.31;100.00;99326.53;6717633;26;34323;-70
2021/12/05 13:47:15;;;;;;;97.00;33.05;;;;;;;0.49;100.00;99313.72;6717200;26;34628;-70
2021/12/05 13:50:21;;;;;;;118.15;36.58;;;;;;;0.36;100.00;99318.31;6718164;26;34161;-70
2021/12/05 13:53:44;;;;;;;93.12;31.67;;;;;;;0.34;100.00;99315.00;6717524;26;34033;-70
2021/12/05 13:56:47;;;;;;;102.43;31.50;;;;;;;0.40;100.00;99306.66;6717624;26;34650;-71
2021/12/05 13:59:50;;;;;;;111.35;33.42;;;;;;;0.33;100.00;99318.59;6717544;26;35016;-70
2021/12/05 14:02:53;;;;;;;110.72;33.20;;;;;;;0.34;100.00;99323.66;6696718;26;34142;-69
2021/12/05 14:05:56;;;;;;;113.85;35.58;;;;;;;0.44;100.00;99337.59;6717478;26;34756;-70
2021/12/05 14:09:10;;;;;;;111.37;33.17;;;;;;;0.44;100.00;99350.63;6716307;26;33779;-69
2021/12/05 14:12:19;;;;;;;117.00;33.15;;;;;;;0.40;100.00;99345.78;6716614;26;34020;-69
2021/12/05 14:15:21;;;;;;;114.57;34.80;;;;;;;0.36;100.00;99347.00;6717197;26;34022;-69
2021/12/05 14:18:24;;;;;;;117.70;34.70;;;;;;;0.39;100.00;99350.19;6716996;26;34635;-71
2021/12/05 14:21:27;;;;;;;117.70;37.10;;;;;;;0.35;100.00;99359.22;6716842;26;33996;-69
2021/12/05 14:24:35;;;;;;;135.75;38.28;;;;;;;0.34;100.00;99365.38;6717234;26;34124;-69
2021/12/05 14:27:42;;;;;;;112.43;36.08;;;;;;;0.35;100.00;99361.84;6717177;26;34635;-69
2021/12/05 14:30:48;;;;;;;112.43;32.85;;;;;;;0.45;100.00;99351.47;6716399;26;33422;-69
2021/12/05 14:33:53;;;;;;;108.95;34.17;;;;;;;0.48;100.00;99358.22;6717179;26;34162;-69
2021/12/05 14:37:03;;;;;;;99.15;31.65;;;;;;;0.49;100.00;99365.91;6717126;26;34083;-69
2021/12/05 14:40:13;;;;;;;100.83;31.23;;;;;;;0.52;100.00;99370.03;6717119;26;34180;-70
2021/12/05 14:43:20;;;;;;;109.93;31.48;;;;;;;0.53;100.00;99379.53;6717082;26;34670;-68
2021/12/05 14:46:22;;;;;;;108.43;31.73;;;;;;;0.54;100.00;99389.00;6717065;26;34039;-70
2021/12/05 14:49:29;;;;;;;111.50;31.73;;;;;;;0.41;100.00;99383.97;6717276;26;34033;-70
2021/12/05 14:52:34;;;;;;;108.37;31.37;;;;;;;0.41;100.00;99382.19;6716724;26;33907;-71
2021/12/05 14:55:37;;;;;;;101.75;30.88;;;;;;;0.41;100.00;99383.97;6716951;26;33996;-69
2021/12/05 14:58:41;;;;;;;100.93;32.45;;;;;;;0.41;100.00;99390.03;6696829;26;34434;-70
2021/12/05 15:01:48;;;;;;;104.07;32.80;;;;;;;0.50;100.00;99392.81;6716391;26;34137;-69
2021/12/05 15:04:53;;;;;;;99.95;33.40;;;;;;;0.51;100.00;99390.09;6696683;26;34599;-69
2021/12/05 15:08:06;;;;;;;107.20;32.78;;;;;;;0.55;100.00;99381.03;6716899;26;35122;-69
2021/12/05 15:11:09;;;;;;;96.85;31.02;;;;;;;0.49;100.00;99392.00;6715531;26;34188;-69
2021/12/05 15:14:12;;;;;;;105.20;33.72;;;;;;;0.51;100.00;99390.09;6716439;26;34116;-69
2021/12/05 15:17:18;;;;;;;91.05;32.80;;;;;;;0.49;100.00;99386.75;6716105;26;34108;-69
2021/12/05 15:20:26;;;;;;;94.13;32.75;;;;;;;0.44;100.00;99384.53;6716593;26;34092;-69
2021/12/05 15:23:32;;;;;;;106.85;35.95;;;;;;;0.47;100.00;99387.88;6716959;26;34165;-68
2021/12/05 15:26:36;;;;;;;93.25;32.97;;;;;;;0.47;100.00;99393.09;6716763;26;34531;-66
2021/12/05 15:29:48;;;;;;;104.07;34.90;;;;;;;0.43;100.00;99390.75;6716522;26;34202;-69
2021/12/05 15:32:56;;;;;;;106.22;37.70;;;;;;;0.43;100.00;99382.91;6716296;26;34359;-69
2021/12/05 15:36:00;;;;;;;106.72;37.25;;;;;;;0.44;100.00;99381.94;6716284;26;33735;-68
2021/12/05 15:39:20;;;;;;;102.40;32.35;;;;;;;0.44;100.00;99387.16;6697178;26;34188;-69
2021/12/05 15:42:26;;;;;;;98.30;31.90;;;;;;;0.48;100.00;99374.69;6697906;26;33998;-69
2021/12/05 15:45:29;;;;;;;97.97;32.83;;;;;;;0.49;100.00;99363.28;6714757;26;34585;-69
2021/12/05 15:48:35;;;;;;;105.37;33.03;;;;;;;0.53;100.00;99371.69;6716885;26;33940;-69
2021/12/05 15:51:38;;;;;;;101.57;33.90;;;;;;;0.44;100.00;99381.94;6716183;26;34809;-69
2021/12/05 15:54:43;;;;;;;100.72;32.83;;;;;;;0.46;100.00;99384.44;6715786;26;33954;-69
2021/12/05 15:57:50;;;;;;;105.00;34.20;;;;;;;0.50;100.00;99379.78;6715243;26;34079;-68
2021/12/05 16:01:05;;;;;;;100.68;33.95;;;;;;;0.50;100.00;99395.44;6716186;26;34081;-69
2021/12/05 16:04:19;;;;;;;112.95;37.00;;;;;;;0.52;100.00;99388.31;6716308;26;34603;-68
2021/12/05 16:07:26;;;;;;;103.53;33.38;;;;;;;0.44;100.00;99381.94;6696962;26;34652;-68
2021/12/05 16:10:31;;;;;;;106.75;31.83;;;;;;;0.43;100.00;99382.91;6716628;26;34394;-68
2021/12/05 16:13:38;;;;;;;103.70;31.62;;;;;;;0.48;100.00;99371.25;6716610;26;33479;-69
2021/12/05 16:16:41;;;;;;;92.00;30.15;;;;;;;0.48;100.00;99366.88;6716944;26;33820;-68
2021/12/05 16:20:09;;;;;;;101.75;32.08;;;;;;;0.44;100.00;99376.72;6716627;26;34246;-68
2021/12/05 16:23:21;;;;;;;96.05;31.75;;;;;;;0.43;100.00;99362.03;6716660;26;34787;-68
2021/12/05 16:26:28;;;;;;;102.55;31.90;;;;;;;0.50;100.00;99356.28;6696958;26;34745;-69
2021/12/05 16:29:31;;;;;;;105.70;32.95;;;;;;;0.46;100.00;99375.78;6716593;26;34683;-71
2021/12/05 16:32:43;;;;;;;85.75;29.45;;;;;;;0.50;100.00;99391.03;6716424;26;34738;-68
2021/12/05 16:35:49;;;;;;;93.53;30.37;;;;;;;0.54;100.00;99396.81;6715973;26;33929;-70
2021/12/05 16:38:52;;;;;;;91.45;30.00;;;;;;;0.51;100.00;99397.91;6716717;26;33960;-68
2021/12/05 16:42:01;;;;;;;97.45;32.50;;;;;;;0.76;100.00;99404.53;6716823;26;34667;-68
2021/12/05 16:45:05;;;;;;;100.30;32.50;;;;;;;0.66;100.00;99421.91;6716119;26;34086;-70
2021/12/05 16:48:08;;;;;;;99.10;31.87;;;;;;;0.63;100.00;99428.19;6716700;26;34659;-70
2021/12/05 16:51:43;;;;;;;99.70;32.50;;;;;;;0.57;100.00;99420.91;6696845;26;34209;-70
2021/12/05 16:54:53;;;;;;;113.28;36.72;;;;;;;0.54;100.00;99394.22;6655453;26;34690;-69
2021/12/05 16:58:13;;;;;;;117.37;37.10;;;;;;;0.51;100.00;99400.53;6717434;26;34435;-70
2021/12/05 17:01:19;;;;;;;108.55;34.08;;;;;;;0.44;100.00;99410.62;6717636;26;34753;-70
2021/12/05 17:04:43;;;;;;;115.80;36.90;;;;;;;0.54;100.00;99421.13;6697292;26;34537;-69
2021/12/05 17:11:09;;;;;;;;;;;;;;;0.58;100.00;99421.72;6718205;26;35018;-68
2021/12/05 17:14:24;;;;;;;105.55;35.10;;;;;;;0.55;100.00;99422.78;6717401;26;35063;-70
2021/12/05 17:17:33;;;;;;;92.45;31.87;;;;;;;0.64;100.00;99421.19;6716936;26;33736;-68
2021/12/05 17:20:49;;;;;;;98.97;30.90;;;;;;;0.44;100.00;99422.84;6717363;26;35281;-70
2021/12/05 17:23:53;;;;;;;105.35;33.22;;;;;;;0.42;100.00;99430.00;6717411;26;34481;-68
2021/12/05 17:27:00;;;;;;;107.22;33.13;;;;;;;0.57;100.00;99435.72;6717990;26;33803;-68
2021/12/05 17:30:05;;;;;;;103.12;33.17;;;;;;;0.61;100.00;99440.56;6717623;26;33997;-69
2021/12/05 17:33:08;;;;;;;96.72;33.20;;;;;;;0.52;100.00;99433.50;6717681;26;34142;-69
2021/12/05 17:36:40;;;;;;;104.55;34.25;;;;;;;0.56;100.00;99439.28;6697777;26;34979;-68
2021/12/05 17:39:45;;;;;;;99.43;34.95;;;;;;;0.49;100.00;99438.97;6717432;26;34014;-68
2021/12/05 17:42:48;;;;;;;112.20;36.40;;;;;;;0.58;100.00;99443.41;6717646;26;33834;-68
2021/12/05 17:45:51;;;;;;;104.25;34.92;;;;;;;0.57;100.00;99446.16;6717492;26;34590;-71
2021/12/05 17:48:54;;;;;;;103.45;33.65;;;;;;;0.54;100.00;99449.00;6717677;26;34128;-71
2021/12/05 17:51:59;;;;;;;90.15;31.42;;;;;;;0.59;100.00;99439.84;6717889;26;34808;-70
2021/12/05 17:55:15;;;;;;;84.78;29.08;;;;;;;0.60;100.00;99436.28;6717219;26;33879;-71
2021/12/05 17:58:35;;;;;;;83.85;28.67;;;;;;;0.59;100.00;99444.25;6697817;26;34021;-73
2021/12/05 18:05:04;;;;;;;82.22;30.85;;;;;;;0.61;100.00;99442.34;6717444;26;34565;-72
2021/12/05 18:08:13;;;;;;;70.68;29.12;;;;;;;0.78;100.00;99453.03;6697327;26;34785;-73
2021/12/05 18:11:22;;;;;;;81.40;30.20;;;;;;;0.72;100.00;99458.78;6717273;26;34593;-73
2021/12/05 18:14:25;;;;;;;77.65;29.37;;;;;;;0.60;100.00;99461.56;6716613;26;34815;-75
2021/12/05 18:17:27;;;;;;;87.37;31.12;;;;;;;0.58;100.00;99466.09;6717582;26;34107;-74
2021/12/05 18:20:32;;;;;;;83.65;28.80;;;;;;;0.54;100.00;99459.44;6717259;26;34680;-74
2021/12/05 18:23:37;;;;;;;76.25;27.60;;;;;;;0.48;100.00;99460.81;6717366;26;33842;-73
2021/12/05 18:26:40;;;;;;;85.30;29.17;;;;;;;0.35;100.00;99447.94;6697377;26;34285;-76
2021/12/05 18:29:44;;;;;;;79.70;29.60;;;;;;;0.33;100.00;99443.81;6717362;26;33900;-75
2021/12/05 18:32:46;;;;;;;66.95;27.33;;;;;;;0.37;100.00;99442.59;6697746;26;34064;-75
2021/12/05 18:35:49;;;;;;;68.85;27.02;;;;;;;0.39;100.00;99438.88;6717096;26;34107;-72
2021/12/05 18:38:53;;;;;;;76.70;27.73;;;;;;;0.42;100.00;99438.66;6717072;26;34600;-75
2021/12/05 18:42:03;;;;;;;71.80;28.02;;;;;;;0.43;100.00;99440.31;6717437;26;33761;-72
2021/12/05 18:45:06;;;;;;;66.55;27.45;;;;;;;0.56;100.00;99437.50;6717260;26;34476;-72
2021/12/05 18:48:10;;;;;;;72.87;28.12;;;;;;;0.56;100.00;99437.50;6717467;26;34721;-72
2021/12/05 18:51:17;;;;;;;70.95;27.92;;;;;;;0.49;100.00;99433.72;6697941;26;34634;-74
2021/12/05 18:54:20;;;;;;;72.07;29.05;;;;;;;0.56;100.00;99426.22;6717843;26;33824;-75
2021/12/05 18:57:24;;;;;;;73.03;28.70;;;;;;;0.53;100.00;99429.13;6697457;26;34750;-73
2021/12/05 19:00:40;;;;;;;75.20;29.63;;;;;;;0.49;100.00;99414.63;6717293;26;35329;-74
2021/12/05 19:07:14;;;;;;;78.43;29.70;;;;;;;0.44;100.00;99404.59;6717341;26;33926;-74
2021/12/05 19:13:39;;;;;;;62.75;26.37;;;;;;;0.63;100.00;99391.66;6717233;26;34007;-74
2021/12/05 19:16:42;;;;;;;64.80;26.55;;;;;;;0.62;100.00;99386.59;6717342;26;34016;-72
2021/12/05 19:19:50;;;;;;;71.03;27.08;;;;;;;0.49;100.00;99380.72;6717554;26;34286;-73
2021/12/05 19:22:54;;;;;;;78.25;31.77;;;;;;;0.48;100.00;99385.13;6716743;26;35254;-73
2021/12/05 19:25:57;;;;;;;80.10;33.25;;;;;;;0.44;100.00;99375.87;6717241;26;34030;-72
2021/12/05 19:29:00;;;;;;;62.03;25.88;;;;;;;0.44;100.00;99389.75;6697324;26;34831;-72
2021/12/05 19:32:06;;;;;;;63.25;24.58;;;;;;;0.51;100.00;99390.09;6717059;26;34032;-72
2021/12/05 19:35:09;;;;;;;66.10;27.20;;;;;;;0.44;100.00;99384.53;6678802;26;34057;-71